Time;durP1;ratioP1;P1;durP2;ratioP2;P2;SDS_P1;SDS_P2;PMS_P1;PMS_P2;Temp;Humidity;BMP_temperature;BMP_pressure;BME280_temperature;BME280_humidity;BME280_pressure;Samples;Min_cycle;Max_cycle;Signal;HPM_P1;HPM_P2
2022/03/29 00:01:51;;;;;;;13.48;6.47;;;;;;;13.77;54.46;100106.81;5035402;28;20541;-73
2022/03/29 00:04:16;;;;;;;15.30;7.22;;;;;;;13.76;54.49;100102.41;5031269;28;20108;-73
2022/03/29 00:06:42;;;;;;;14.50;6.90;;;;;;;13.75;55.00;100102.72;5018888;28;20029;-72
2022/03/29 00:09:07;;;;;;;14.63;5.75;;;;;;;13.70;54.24;100095.31;4999047;28;20017;-73
2022/03/29 00:11:33;;;;;;;13.30;6.22;;;;;;;13.69;54.76;100093.69;5023425;28;20030;-72
2022/03/29 00:13:59;;;;;;;12.10;6.00;;;;;;;13.68;54.88;100096.78;5041315;28;20037;-73
2022/03/29 00:16:24;;;;;;;15.98;6.35;;;;;;;13.66;55.08;100097.13;5028180;28;20037;-73
2022/03/29 00:18:50;;;;;;;15.55;7.05;;;;;;;13.66;55.11;100088.75;5045578;28;20036;-73
2022/03/29 00:21:15;;;;;;;12.27;6.55;;;;;;;13.63;55.51;100093.00;5002260;28;20032;-73
2022/03/29 00:23:41;;;;;;;14.50;6.20;;;;;;;13.62;55.28;100093.31;5028273;28;20041;-73
2022/03/29 00:26:06;;;;;;;15.75;6.43;;;;;;;13.60;55.81;100093.66;5028280;28;20024;-73
2022/03/29 00:28:32;;;;;;;16.77;6.90;;;;;;;13.57;55.94;100085.94;5025318;28;20052;-73
2022/03/29 00:30:58;;;;;;;12.13;6.50;;;;;;;13.57;56.14;100085.94;5054611;28;20025;-73
2022/03/29 00:33:23;;;;;;;15.60;6.57;;;;;;;13.56;56.60;100086.25;5004720;28;20033;-72
2022/03/29 00:35:49;;;;;;;14.50;6.30;;;;;;;13.53;56.77;100075.75;5035774;28;20025;-72
2022/03/29 00:38:14;;;;;;;15.48;7.15;;;;;;;13.53;56.65;100079.34;5000090;28;20025;-72
2022/03/29 00:40:40;;;;;;;13.60;6.97;;;;;;;13.47;57.09;100077.88;5002091;28;20026;-73
2022/03/29 00:43:08;;;;;;;13.15;6.68;;;;;;;13.47;56.62;100075.06;5025875;28;20043;-72
2022/03/29 00:45:34;;;;;;;14.35;6.50;;;;;;;13.44;56.78;100072.13;5002495;28;20370;-72
2022/03/29 00:48:00;;;;;;;14.75;5.97;;;;;;;13.43;56.90;100074.09;5026957;28;20052;-72
2022/03/29 00:50:26;;;;;;;14.50;7.18;;;;;;;13.41;56.62;100076.38;5058169;28;20472;-73
2022/03/29 00:52:52;;;;;;;15.05;6.45;;;;;;;13.37;56.56;100070.63;5042933;28;20651;-73
2022/03/29 00:55:18;;;;;;;16.77;6.90;;;;;;;13.36;56.86;100062.56;5062069;28;20048;-72
2022/03/29 00:57:45;;;;;;;14.90;6.75;;;;;;;13.28;57.92;100055.00;5042099;28;20868;-73
2022/03/29 01:00:11;;;;;;;17.58;6.13;;;;;;;13.28;57.33;100057.78;5066464;28;20691;-73
2022/03/29 01:02:37;;;;;;;13.27;6.40;;;;;;;13.28;58.52;100052.22;5034282;28;20032;-72
2022/03/29 01:05:03;;;;;;;14.77;6.75;;;;;;;13.25;58.88;100041.66;5038163;28;20040;-72
2022/03/29 01:07:28;;;;;;;15.60;7.05;;;;;;;13.24;59.58;100031.69;5038214;28;20037;-73
2022/03/29 01:09:54;;;;;;;13.60;6.30;;;;;;;13.22;58.79;100039.53;5064862;28;20025;-72
2022/03/29 01:12:22;;;;;;;15.00;6.95;;;;;;;13.19;59.72;100041.81;5038262;28;20055;-72
2022/03/29 01:14:47;;;;;;;20.20;7.65;;;;;;;13.11;60.65;100033.44;5038131;28;20025;-72
2022/03/29 01:19:57;;;;;;;17.80;7.30;;;;;;;13.04;60.83;100045.06;5061721;28;20048;-72
2022/03/29 01:22:23;;;;;;;16.33;7.53;;;;;;;12.99;61.87;100039.63;5028028;28;20040;-72
2022/03/29 01:24:50;;;;;;;17.27;7.43;;;;;;;12.99;62.87;100047.16;5028542;28;20024;-72
2022/03/29 01:27:15;;;;;;;16.40;7.40;;;;;;;12.94;61.58;100045.34;5030247;28;20036;-73
2022/03/29 01:29:43;;;;;;;11.70;6.25;;;;;;;12.94;62.49;100050.91;5021383;28;20424;-72
2022/03/29 01:32:10;;;;;;;16.13;6.82;;;;;;;12.90;62.25;100042.38;5023549;28;20387;-72
2022/03/29 01:34:37;;;;;;;15.82;6.47;;;;;;;12.90;62.52;100052.72;5057184;28;20607;-72
2022/03/29 01:37:05;;;;;;;14.60;7.05;;;;;;;12.84;61.85;100045.59;5062709;28;20044;-72
2022/03/29 01:39:32;;;;;;;14.88;6.78;;;;;;;12.83;63.14;100042.00;5036514;28;20025;-73
2022/03/29 01:41:57;;;;;;;14.85;6.93;;;;;;;12.79;62.67;100034.59;5038301;28;20032;-72
2022/03/29 01:44:23;;;;;;;16.33;7.30;;;;;;;12.74;63.87;100036.38;5044611;28;20036;-72
2022/03/29 01:46:49;;;;;;;14.73;7.05;;;;;;;12.73;64.20;100037.53;5043121;28;20025;-73
2022/03/29 01:49:15;;;;;;;16.70;6.85;;;;;;;12.71;63.61;100034.25;5072140;28;20034;-72
2022/03/29 01:51:40;;;;;;;16.30;7.47;;;;;;;12.70;63.83;100021.47;5067633;28;20021;-73
2022/03/29 01:54:05;;;;;;;12.07;7.10;;;;;;;12.63;62.87;100004.38;5035182;28;20060;-72
2022/03/29 01:56:32;;;;;;;14.25;6.72;;;;;;;12.64;65.11;100002.41;5057561;28;20489;-72
2022/03/29 01:58:58;;;;;;;16.27;7.28;;;;;;;12.64;64.62;100002.41;5040877;28;20108;-72
2022/03/29 02:01:24;;;;;;;15.63;6.90;;;;;;;12.61;64.79;100003.88;5039356;28;20481;-72
2022/03/29 02:03:49;;;;;;;13.50;6.32;;;;;;;12.57;64.74;99999.28;5049697;28;20044;-73
2022/03/29 02:06:15;;;;;;;17.13;6.88;;;;;;;12.54;65.13;99992.38;5044159;28;20473;-72
2022/03/29 02:08:41;;;;;;;16.10;6.82;;;;;;;12.47;65.17;99986.44;5024115;28;20400;-73
2022/03/29 02:11:07;;;;;;;20.98;7.18;;;;;;;12.48;67.34;100002.84;5040739;28;20033;-73
2022/03/29 02:13:33;;;;;;;18.98;7.00;;;;;;;12.44;66.78;99996.25;5002870;28;20030;-72
2022/03/29 02:15:59;;;;;;;13.15;7.13;;;;;;;12.45;67.27;99989.56;5006717;28;20116;-72
2022/03/29 02:18:24;;;;;;;17.33;6.72;;;;;;;12.41;67.61;99984.94;5020851;28;20068;-72
2022/03/29 02:20:49;;;;;;;20.50;6.88;;;;;;;12.38;66.50;99977.22;5055255;28;20017;-73
2022/03/29 02:23:15;;;;;;;18.80;6.45;;;;;;;12.35;66.85;99970.31;5048391;28;20037;-72
2022/03/29 02:25:41;;;;;;;22.05;7.18;;;;;;;12.37;66.62;99975.56;5051318;28;20482;-72
2022/03/29 02:28:07;;;;;;;19.10;7.15;;;;;;;12.33;67.86;99977.34;5037134;28;20071;-73
2022/03/29 02:30:33;;;;;;;16.85;6.40;;;;;;;12.30;67.28;99978.81;5022953;28;20032;-73
2022/03/29 02:32:59;;;;;;;14.50;6.95;;;;;;;12.27;66.87;99980.25;5020748;28;20055;-73
2022/03/29 02:35:24;;;;;;;14.50;6.60;;;;;;;12.26;66.11;99969.47;5053503;28;20038;-73
2022/03/29 02:37:50;;;;;;;14.57;6.10;;;;;;;12.16;66.01;99959.38;5036492;28;20032;-73
2022/03/29 02:40:15;;;;;;;14.52;6.57;;;;;;;12.18;67.13;99959.91;5025482;28;20033;-73
2022/03/29 02:42:49;;;;;;;16.75;6.50;;;;;;;12.14;66.92;99949.72;5054528;28;20036;-73
2022/03/29 02:45:24;;;;;;;17.00;6.70;;;;;;;12.10;67.04;99946.75;5035940;28;20029;-73
2022/03/29 02:47:51;;;;;;;16.20;6.30;;;;;;;12.06;66.65;99942.94;5034865;28;20511;-73
2022/03/29 02:50:17;;;;;;;17.65;6.75;;;;;;;11.99;67.04;99932.28;5056171;28;20053;-73
2022/03/29 02:52:47;;;;;;;17.05;6.03;;;;;;;12.00;67.27;99920.00;5027126;28;20037;-72
2022/03/29 02:55:13;;;;;;;14.32;6.80;;;;;;;11.97;67.68;99922.59;5005455;28;20068;-73
2022/03/29 02:57:38;;;;;;;18.65;6.45;;;;;;;11.89;67.17;99924.19;5019234;28;20078;-73
2022/03/29 03:00:05;;;;;;;16.98;7.35;;;;;;;11.85;67.08;99918.44;5061044;28;20025;-73
2022/03/29 03:02:32;;;;;;;12.88;6.03;;;;;;;11.85;67.91;99918.44;5031389;28;20024;-73
2022/03/29 03:04:59;;;;;;;18.13;6.38;;;;;;;11.83;68.71;99906.75;5040214;28;20398;-73
2022/03/29 03:07:24;;;;;;;14.32;5.97;;;;;;;11.79;67.58;99897.41;5033452;28;20106;-72
2022/03/29 03:09:50;;;;;;;16.75;6.43;;;;;;;11.76;67.01;99888.91;5038706;28;20037;-73
2022/03/29 03:12:15;;;;;;;16.00;6.47;;;;;;;11.70;68.01;99884.56;5039809;28;20033;-73
2022/03/29 03:14:41;;;;;;;15.38;6.30;;;;;;;11.67;68.94;99880.47;5025704;28;20033;-73
2022/03/29 03:17:06;;;;;;;14.02;6.50;;;;;;;11.71;68.16;99870.34;5039771;28;20461;-72
2022/03/29 03:19:32;;;;;;;14.63;6.35;;;;;;;11.58;67.55;99871.25;5022780;28;20389;-72
2022/03/29 03:21:57;;;;;;;14.25;6.65;;;;;;;11.58;67.54;99871.25;5023182;28;20032;-73
2022/03/29 03:24:23;;;;;;;15.68;7.13;;;;;;;11.54;68.69;99861.91;5069390;28;20036;-73
2022/03/29 03:26:48;;;;;;;16.50;7.00;;;;;;;11.54;68.55;99861.91;5034638;28;20489;-72
2022/03/29 03:29:13;;;;;;;12.70;6.40;;;;;;;11.49;68.17;99862.03;5023037;28;20033;-73
2022/03/29 03:31:39;;;;;;;15.25;6.70;;;;;;;11.46;68.41;99857.09;5015483;28;20036;-73
2022/03/29 03:34:04;;;;;;;15.02;6.60;;;;;;;11.43;67.79;99850.22;5031197;28;20032;-72
2022/03/29 03:36:30;;;;;;;11.35;5.72;;;;;;;11.39;67.09;99852.81;5038683;28;20029;-72
2022/03/29 03:38:55;;;;;;;15.45;6.95;;;;;;;11.38;66.94;99855.88;5019384;28;20037;-73
2022/03/29 03:41:21;;;;;;;14.32;6.55;;;;;;;11.34;67.43;99850.16;5039154;28;20032;-72
2022/03/29 03:43:46;;;;;;;14.52;7.38;;;;;;;11.33;67.24;99853.22;5038802;28;20432;-72
2022/03/29 03:46:12;;;;;;;15.98;6.68;;;;;;;11.28;67.94;99851.41;5038817;28;20029;-72
2022/03/29 03:48:37;;;;;;;18.20;6.53;;;;;;;11.22;68.04;99849.88;5052616;28;20036;-72
2022/03/29 03:51:03;;;;;;;15.13;6.32;;;;;;;11.13;68.44;99844.25;5039007;28;20033;-72
2022/03/29 03:53:29;;;;;;;15.15;6.47;;;;;;;11.11;68.36;99851.25;5043814;28;20051;-72
2022/03/29 03:55:54;;;;;;;17.83;7.13;;;;;;;11.07;67.91;99848.28;5043722;28;20063;-72
2022/03/29 03:58:20;;;;;;;15.07;6.20;;;;;;;11.02;68.41;99836.47;5025180;28;20039;-72
2022/03/29 04:00:45;;;;;;;15.20;6.68;;;;;;;10.95;68.51;99834.94;5035418;28;20031;-73
2022/03/29 04:03:11;;;;;;;15.40;6.07;;;;;;;10.92;68.30;99840.28;5045066;28;20054;-73
2022/03/29 04:05:37;;;;;;;18.65;6.60;;;;;;;10.88;68.54;99831.75;5053666;28;20033;-73
2022/03/29 04:08:02;;;;;;;14.77;6.68;;;;;;;10.83;68.87;99825.50;5058666;28;20036;-72
2022/03/29 04:10:28;;;;;;;15.40;6.22;;;;;;;10.82;69.11;99827.47;5055571;28;20075;-72
2022/03/29 04:12:54;;;;;;;15.10;6.07;;;;;;;10.77;69.34;99824.78;5056760;28;20035;-72
2022/03/29 04:15:19;;;;;;;13.82;6.68;;;;;;;10.71;69.00;99832.41;5038680;28;20029;-72
2022/03/29 04:17:45;;;;;;;13.98;6.40;;;;;;;10.71;68.46;99831.59;5058643;28;20039;-73
2022/03/29 04:20:10;;;;;;;12.68;6.25;;;;;;;10.66;68.58;99828.94;5042668;28;20036;-73
2022/03/29 04:22:36;;;;;;;11.65;6.50;;;;;;;10.66;68.25;99823.38;5027001;28;20077;-73
2022/03/29 04:25:02;;;;;;;15.60;6.80;;;;;;;10.60;68.41;99830.19;5059307;28;20056;-73
2022/03/29 04:27:27;;;;;;;14.48;6.53;;;;;;;10.57;68.33;99820.50;5059088;28;20081;-72
2022/03/29 04:29:53;;;;;;;13.48;6.50;;;;;;;10.56;68.64;99820.81;5042612;28;20029;-72
2022/03/29 04:32:18;;;;;;;14.00;6.28;;;;;;;10.50;69.18;99809.84;5035390;28;20037;-72
2022/03/29 04:34:45;;;;;;;15.35;6.93;;;;;;;10.49;69.25;99802.63;5021710;28;20389;-72
2022/03/29 04:37:11;;;;;;;13.07;6.53;;;;;;;10.46;69.07;99808.81;5052568;28;20047;-72
2022/03/29 04:39:38;;;;;;;16.15;6.72;;;;;;;10.45;69.51;99807.16;5021834;28;20017;-72
2022/03/29 04:42:05;;;;;;;13.95;6.22;;;;;;;10.40;69.46;99807.28;5060120;28;20034;-72
2022/03/29 04:44:30;;;;;;;16.10;6.63;;;;;;;10.39;69.26;99805.63;5025721;28;20078;-72
2022/03/29 04:46:56;;;;;;;15.15;6.32;;;;;;;10.37;68.94;99804.31;5046740;28;20037;-73
2022/03/29 04:49:22;;;;;;;13.23;6.80;;;;;;;10.35;69.56;99807.38;5058183;28;20029;-73
2022/03/29 04:51:47;;;;;;;17.30;7.03;;;;;;;10.29;69.65;99803.88;5055148;28;20032;-72
2022/03/29 04:54:13;;;;;;;16.88;6.53;;;;;;;10.29;68.83;99801.09;5055584;28;20550;-73
2022/03/29 04:56:38;;;;;;;15.50;6.65;;;;;;;10.29;68.42;99797.53;5060756;28;20463;-73
2022/03/29 04:59:05;;;;;;;16.38;6.57;;;;;;;10.25;68.88;99800.06;5044841;28;20028;-72
2022/03/29 05:01:30;;;;;;;17.02;6.95;;;;;;;10.22;68.90;99797.06;5062582;28;20391;-73
2022/03/29 05:03:55;;;;;;;22.52;8.07;;;;;;;10.20;68.86;99796.56;5042192;28;20029;-73
2022/03/29 05:06:21;;;;;;;18.15;6.60;;;;;;;10.16;69.25;99790.81;5044750;28;20029;-73
2022/03/29 05:08:46;;;;;;;15.73;7.03;;;;;;;10.15;68.81;99796.69;5058921;28;20546;-72
2022/03/29 05:11:12;;;;;;;16.05;6.95;;;;;;;10.15;68.65;99791.94;5057003;28;20046;-73
2022/03/29 05:13:38;;;;;;;14.48;6.82;;;;;;;10.10;68.84;99794.00;5061925;28;20028;-72
2022/03/29 05:16:04;;;;;;;17.52;6.60;;;;;;;10.06;68.57;99791.03;5045092;28;20025;-72
2022/03/29 05:18:29;;;;;;;18.05;6.75;;;;;;;10.00;68.84;99793.09;5045104;28;20066;-73
2022/03/29 05:20:55;;;;;;;19.83;7.05;;;;;;;10.01;68.80;99802.22;5061539;28;20025;-72
2022/03/29 05:23:22;;;;;;;17.02;7.20;;;;;;;9.97;68.62;99799.25;5054629;28;20035;-72
2022/03/29 05:25:48;;;;;;;16.08;7.68;;;;;;;9.91;68.97;99797.69;5065084;28;20370;-73
2022/03/29 05:28:13;;;;;;;17.92;7.35;;;;;;;9.92;68.92;99804.88;5041679;28;20036;-72
2022/03/29 05:30:39;;;;;;;19.08;7.15;;;;;;;9.89;69.44;99802.72;5063686;28;20040;-73
2022/03/29 05:33:05;;;;;;;13.75;7.53;;;;;;;9.87;70.15;99798.63;5046462;28;20016;-73
2022/03/29 05:35:30;;;;;;;17.52;7.80;;;;;;;9.89;69.55;99804.66;5063447;28;20028;-72
2022/03/29 05:37:57;;;;;;;19.35;6.95;;;;;;;9.81;69.71;99795.94;5055098;28;20060;-72
2022/03/29 05:40:23;;;;;;;16.13;7.07;;;;;;;9.81;69.43;99797.91;5022639;28;20025;-72
2022/03/29 05:42:48;;;;;;;16.85;7.65;;;;;;;9.78;69.40;99793.78;5041499;28;20037;-72
2022/03/29 05:45:14;;;;;;;13.95;7.53;;;;;;;9.77;69.72;99802.41;5060986;28;20039;-72
2022/03/29 05:50:24;;;;;;;18.10;7.50;;;;;;;9.71;70.13;99798.06;5061111;28;20701;-73
2022/03/29 05:52:50;;;;;;;18.63;7.45;;;;;;;9.73;69.55;99804.16;5024526;28;20068;-72
2022/03/29 05:55:16;;;;;;;14.77;7.50;;;;;;;9.68;69.67;99799.50;5029104;28;20053;-72
2022/03/29 05:57:41;;;;;;;19.10;7.93;;;;;;;9.67;70.30;99802.56;5059564;28;20038;-72
2022/03/29 06:00:10;;;;;;;19.98;8.15;;;;;;;9.63;70.61;99805.13;5049272;28;20028;-72
2022/03/29 06:02:38;;;;;;;14.27;7.80;;;;;;;9.60;70.26;99792.72;5028919;28;20386;-72
2022/03/29 06:05:05;;;;;;;22.80;8.18;;;;;;;9.62;70.46;99789.66;5054240;28;20044;-73
2022/03/29 06:07:30;;;;;;;16.33;7.65;;;;;;;9.61;70.85;99793.53;5058739;28;20036;-73
2022/03/29 06:09:56;;;;;;;23.40;8.20;;;;;;;9.58;70.59;99797.75;5078120;28;20029;-73
2022/03/29 06:12:22;;;;;;;18.67;8.20;;;;;;;9.59;70.79;99790.25;5071613;28;20074;-73
2022/03/29 06:14:47;;;;;;;19.27;8.82;;;;;;;9.59;70.88;99796.63;5054479;28;20064;-73
2022/03/29 06:17:13;;;;;;;17.73;8.65;;;;;;;9.60;71.74;99795.47;5057217;28;20053;-75
2022/03/29 06:19:38;;;;;;;16.55;8.88;;;;;;;9.55;72.47;99798.34;5057200;28;20055;-74
2022/03/29 06:22:04;;;;;;;20.73;8.93;;;;;;;9.56;72.76;99791.69;5021079;28;20033;-75
2022/03/29 06:24:31;;;;;;;23.35;10.25;;;;;;;9.57;72.97;99798.06;5069655;28;20024;-75
2022/03/29 06:26:57;;;;;;;16.58;9.20;;;;;;;9.59;72.15;99796.63;5066161;28;20362;-74
2022/03/29 06:29:23;;;;;;;20.40;9.40;;;;;;;9.60;73.38;99798.25;5066187;28;20022;-76
2022/03/29 06:32:06;;;;;;;21.35;9.60;;;;;;;9.56;72.56;99802.78;5013062;28;20122;-79
2022/03/29 06:34:32;;;;;;;19.70;9.77;;;;;;;9.59;74.24;99796.63;5024101;28;20063;-79
2022/03/29 06:37:01;;;;;;;21.33;9.38;;;;;;;9.62;73.91;99800.72;5019542;28;20025;-78
2022/03/29 06:39:31;;;;;;;23.20;10.00;;;;;;;9.62;74.11;99793.22;5032067;28;20075;-78
2022/03/29 06:42:00;;;;;;;21.48;9.70;;;;;;;9.67;74.83;99792.31;5054673;28;20029;-78
2022/03/29 06:44:27;;;;;;;20.30;9.52;;;;;;;9.67;76.45;99800.66;5024319;28;20047;-79
2022/03/29 06:46:55;;;;;;;24.33;9.27;;;;;;;9.69;74.88;99789.22;5024055;28;20075;-79
2022/03/29 06:49:25;;;;;;;18.98;9.40;;;;;;;9.70;74.96;99794.50;5013002;28;20021;-80
2022/03/29 06:51:54;;;;;;;22.25;9.15;;;;;;;9.74;75.23;99792.72;5041661;28;20063;-79
2022/03/29 06:54:22;;;;;;;16.58;8.65;;;;;;;9.75;75.57;99799.94;5031833;28;20049;-78
2022/03/29 06:56:48;;;;;;;18.88;8.93;;;;;;;9.78;75.57;99795.75;5053516;28;20442;-79
2022/03/29 06:59:13;;;;;;;22.67;9.13;;;;;;;9.80;74.92;99790.69;5066734;28;20456;-79
2022/03/29 07:01:39;;;;;;;20.55;9.65;;;;;;;9.83;76.15;99796.47;5036391;28;20477;-79
2022/03/29 07:04:07;;;;;;;22.17;9.23;;;;;;;9.86;76.12;99792.22;5030016;28;20079;-78
2022/03/29 07:06:33;;;;;;;16.88;8.40;;;;;;;9.90;75.57;99790.50;5025071;28;20029;-78
2022/03/29 07:11:57;;;;;;;24.67;9.93;;;;;;;9.99;78.77;99796.16;5028582;28;20041;-78
2022/03/29 07:14:22;;;;;;;19.75;9.32;;;;;;;10.06;78.45;99800.16;5026314;28;20029;-78
2022/03/29 07:16:48;;;;;;;18.23;9.40;;;;;;;10.14;78.46;99801.41;5040527;28;20029;-78
2022/03/29 07:19:14;;;;;;;26.35;10.77;;;;;;;10.23;81.63;99801.50;5055951;28;20114;-78
2022/03/29 07:21:39;;;;;;;22.77;10.15;;;;;;;10.35;81.54;99801.00;5047885;28;20095;-78
2022/03/29 07:24:08;;;;;;;17.80;8.88;;;;;;;10.46;77.84;99797.69;5019612;28;20083;-78
2022/03/29 07:26:34;;;;;;;22.73;9.48;;;;;;;10.59;79.56;99801.59;5066805;28;20029;-78
2022/03/29 07:29:00;;;;;;;25.92;9.77;;;;;;;10.72;79.12;99803.50;5037199;28;20060;-78
2022/03/29 07:31:26;;;;;;;23.17;10.00;;;;;;;10.83;79.56;99806.88;5041858;28;20032;-78
2022/03/29 07:33:51;;;;;;;20.48;8.90;;;;;;;10.95;76.77;99803.56;5066585;28;20029;-78
2022/03/29 07:36:17;;;;;;;28.05;11.05;;;;;;;11.09;77.45;99803.53;5067127;28;20020;-79
2022/03/29 07:38:43;;;;;;;22.27;9.63;;;;;;;11.21;77.59;99803.75;5062374;28;20021;-78
2022/03/29 07:41:08;;;;;;;18.02;8.52;;;;;;;11.35;74.99;99800.94;5057200;28;20101;-78
2022/03/29 07:43:34;;;;;;;26.33;10.38;;;;;;;11.51;79.02;99798.59;5049093;28;20044;-78
2022/03/29 07:45:59;;;;;;;22.65;9.00;;;;;;;11.65;76.75;99804.88;5022344;28;20396;-79
2022/03/29 07:48:27;;;;;;;29.55;9.38;;;;;;;11.80;78.01;99796.13;5019579;28;20053;-78
2022/03/29 07:50:55;;;;;;;21.83;9.30;;;;;;;11.96;76.60;99790.19;5015864;28;20563;-78
2022/03/29 07:53:24;;;;;;;19.20;9.10;;;;;;;12.14;76.35;99799.41;5049058;28;20056;-78
2022/03/29 07:55:51;;;;;;;17.30;8.68;;;;;;;12.29;75.80;99791.44;5050152;28;20056;-78
2022/03/29 07:58:17;;;;;;;20.30;9.70;;;;;;;12.45;73.61;99804.91;5061871;28;20032;-79
2022/03/29 08:00:43;;;;;;;23.20;9.60;;;;;;;12.61;72.81;99808.06;5042182;28;20071;-78
2022/03/29 08:03:10;;;;;;;23.38;9.38;;;;;;;12.75;72.66;99801.19;5072289;28;20028;-77
2022/03/29 08:05:36;;;;;;;19.20;8.77;;;;;;;12.92;71.93;99797.59;5075567;28;20032;-77
2022/03/29 08:08:10;;;;;;;24.13;9.75;;;;;;;13.10;72.92;99805.97;5065697;28;20061;-79
2022/03/29 08:10:35;;;;;;;23.58;9.82;;;;;;;13.23;73.54;99804.16;5102178;28;20054;-75
2022/03/29 08:13:32;;;;;;;19.85;8.85;;;;;;;13.38;71.10;99804.50;5103742;28;20404;-81
2022/03/29 08:15:58;;;;;;;23.80;9.27;;;;;;;13.51;70.54;99801.84;5068901;28;20024;-83
2022/03/29 08:18:24;;;;;;;22.35;10.45;;;;;;;13.63;73.62;99799.22;5055847;28;20066;-83
2022/03/29 08:20:49;;;;;;;24.80;9.63;;;;;;;13.76;71.69;99802.94;5058659;28;20063;-83
2022/03/29 08:23:15;;;;;;;20.70;9.75;;;;;;;13.87;71.83;99798.66;5049440;28;20028;-83
2022/03/29 08:25:42;;;;;;;22.65;9.35;;;;;;;14.00;70.92;99799.59;5040372;28;20024;-82
2022/03/29 08:28:08;;;;;;;23.67;9.75;;;;;;;14.13;71.65;99800.53;5043614;28;20027;-82
2022/03/29 08:30:35;;;;;;;22.45;10.15;;;;;;;14.24;72.02;99796.22;5065962;28;20028;-82
2022/03/29 08:33:02;;;;;;;19.92;9.98;;;;;;;14.37;72.31;99794.31;5046430;28;20039;-82
2022/03/29 08:35:27;;;;;;;21.10;10.05;;;;;;;14.48;70.99;99793.59;5071966;28;20082;-81
2022/03/29 08:37:53;;;;;;;24.33;10.98;;;;;;;14.59;72.73;99796.03;5089216;28;20031;-82
2022/03/29 08:40:22;;;;;;;25.95;11.55;;;;;;;14.72;72.85;99790.19;5054354;28;20025;-82
2022/03/29 08:42:48;;;;;;;22.52;10.02;;;;;;;14.85;72.47;99793.06;5052270;28;20090;-82
2022/03/29 08:45:15;;;;;;;23.23;9.48;;;;;;;15.00;71.89;99783.25;5064162;28;20115;-80
2022/03/29 08:47:42;;;;;;;26.35;11.57;;;;;;;15.12;75.04;99788.91;5095652;28;20074;-81
2022/03/29 08:50:11;;;;;;;19.55;10.90;;;;;;;15.27;73.59;99791.09;5053116;28;20120;-81
2022/03/29 08:52:37;;;;;;;22.38;11.60;;;;;;;15.41;72.55;99783.22;5098662;28;20031;-80
2022/03/29 08:55:03;;;;;;;19.65;11.30;;;;;;;15.57;72.85;99776.94;5090390;28;20056;-82
2022/03/29 08:57:32;;;;;;;24.20;10.35;;;;;;;15.71;70.96;99774.72;5065549;28;20038;-82
2022/03/29 08:59:57;;;;;;;24.23;11.20;;;;;;;15.88;70.61;99770.06;5058050;28;20036;-82
2022/03/29 09:02:23;;;;;;;22.27;10.30;;;;;;;16.01;70.12;99780.94;5022715;28;20380;-82
2022/03/29 09:05:09;;;;;;;26.45;10.85;;;;;;;16.20;70.53;99783.16;5061073;28;20551;-82
2022/03/29 09:07:51;;;;;;;21.33;10.57;;;;;;;16.39;69.57;99773.38;5041344;28;20426;-82
2022/03/29 09:10:17;;;;;;;27.15;10.73;;;;;;;16.52;70.01;99770.19;5076238;28;20169;-82
2022/03/29 09:12:42;;;;;;;18.92;10.15;;;;;;;16.68;68.96;99777.88;5041092;28;20032;-82
2022/03/29 09:15:09;;;;;;;19.05;10.38;;;;;;;16.79;69.13;99769.81;5073732;28;20055;-75
2022/03/29 09:17:45;;;;;;;24.25;10.63;;;;;;;16.90;68.36;99771.78;5087498;28;20483;-75
2022/03/29 09:20:21;;;;;;;26.35;10.90;;;;;;;17.00;68.53;99773.28;5086549;28;20400;-75
2022/03/29 09:22:47;;;;;;;21.38;11.05;;;;;;;17.08;67.75;99775.13;5096832;28;20097;-75
2022/03/29 09:25:37;;;;;;;19.40;10.13;;;;;;;17.18;67.54;99777.41;5092482;28;20492;-75
2022/03/29 09:28:05;;;;;;;27.27;10.98;;;;;;;17.28;68.64;99772.50;5095719;28;20040;-75
2022/03/29 09:30:38;;;;;;;19.85;10.40;;;;;;;17.36;66.99;99769.53;5069083;28;20028;-75
2022/03/29 09:33:09;;;;;;;23.02;10.68;;;;;;;17.43;67.28;99774.50;5109277;28;20062;-75
2022/03/29 09:35:37;;;;;;;29.77;12.25;;;;;;;17.43;67.82;99768.91;5065425;28;20058;-75
2022/03/29 09:38:19;;;;;;;25.80;12.68;;;;;;;17.53;67.82;99771.19;5094349;28;20122;-74
2022/03/29 09:40:44;;;;;;;19.45;11.05;;;;;;;17.62;67.14;99771.84;5060536;28;20028;-73
2022/03/29 09:43:10;;;;;;;22.27;11.13;;;;;;;17.70;65.89;99767.25;5071521;28;20408;-73
2022/03/29 09:45:40;;;;;;;19.67;11.07;;;;;;;17.69;66.89;99767.59;5102568;28;20495;-73
2022/03/29 09:48:22;;;;;;;23.23;11.02;;;;;;;17.76;65.88;99764.97;5081366;28;20028;-73
2022/03/29 09:50:48;;;;;;;19.95;10.82;;;;;;;17.78;65.17;99757.88;5112333;28;20031;-73
2022/03/29 09:53:32;;;;;;;25.05;11.90;;;;;;;17.84;65.06;99758.41;5105913;28;20085;-73
2022/03/29 09:56:01;;;;;;;22.83;11.05;;;;;;;17.84;64.75;99756.41;5105750;28;20042;-74
2022/03/29 09:58:28;;;;;;;25.98;11.77;;;;;;;17.90;64.80;99753.34;5092245;28;20039;-73
2022/03/29 10:00:55;;;;;;;22.40;10.57;;;;;;;17.95;64.75;99744.66;5112622;28;20040;-73
2022/03/29 10:03:20;;;;;;;23.27;11.15;;;;;;;17.99;64.49;99746.34;5081079;28;20028;-74
2022/03/29 10:05:46;;;;;;;22.92;12.13;;;;;;;18.04;64.92;99740.47;5063760;28;20086;-73
2022/03/29 10:11:09;;;;;;;30.73;13.10;;;;;;;18.09;64.44;99737.38;5072426;28;20057;-72
2022/03/29 10:13:36;;;;;;;23.27;12.30;;;;;;;18.16;64.13;99733.13;5091445;28;20030;-73
2022/03/29 10:16:02;;;;;;;29.73;13.20;;;;;;;18.18;64.34;99731.56;5061056;28;20033;-73
2022/03/29 10:18:27;;;;;;;24.08;13.40;;;;;;;18.26;64.45;99726.94;5093092;28;20023;-73
2022/03/29 10:20:54;;;;;;;21.25;12.02;;;;;;;18.36;65.07;99728.38;5072077;28;20015;-73
2022/03/29 10:23:22;;;;;;;24.70;12.85;;;;;;;18.43;65.00;99725.72;5091072;28;20484;-73
2022/03/29 10:25:48;;;;;;;30.35;13.15;;;;;;;18.55;65.11;99728.41;5098355;28;20032;-73
2022/03/29 10:28:14;;;;;;;25.42;12.65;;;;;;;18.64;65.08;99731.84;5060409;28;20085;-73
2022/03/29 10:30:41;;;;;;;23.55;12.38;;;;;;;18.75;63.64;99726.50;5080257;28;20059;-73
2022/03/29 10:33:19;;;;;;;24.52;12.82;;;;;;;18.86;62.87;99715.47;5105063;28;20031;-73
2022/03/29 10:36:09;;;;;;;23.35;11.50;;;;;;;18.96;62.66;99726.13;5089140;28;20039;-73
2022/03/29 10:38:47;;;;;;;26.05;12.75;;;;;;;19.08;62.35;99722.34;5076745;28;20036;-73
2022/03/29 10:41:30;;;;;;;28.85;12.95;;;;;;;19.20;61.42;99719.41;5092468;28;20031;-74
2022/03/29 10:44:04;;;;;;;28.30;13.45;;;;;;;19.30;61.33;99715.97;5108620;28;20035;-73
2022/03/29 10:46:41;;;;;;;25.95;13.35;;;;;;;19.41;61.50;99716.97;5086544;28;20039;-73
2022/03/29 10:49:20;;;;;;;29.65;12.73;;;;;;;19.51;60.49;99711.94;5105988;28;20096;-73
2022/03/29 10:51:47;;;;;;;27.10;12.80;;;;;;;19.60;60.92;99709.69;5085047;28;20050;-73
2022/03/29 10:54:30;;;;;;;25.40;12.90;;;;;;;19.73;61.35;99710.38;5085553;28;20068;-73
2022/03/29 10:56:57;;;;;;;25.50;13.00;;;;;;;19.91;60.51;99702.22;5089622;28;20036;-74
2022/03/29 10:59:24;;;;;;;26.17;11.98;;;;;;;20.06;59.95;99695.63;5085155;28;20048;-73
2022/03/29 11:02:14;;;;;;;26.80;12.00;;;;;;;20.22;59.06;99701.91;5087100;28;20039;-74
2022/03/29 11:05:03;;;;;;;27.52;12.93;;;;;;;20.38;58.07;99692.50;5064963;28;20025;-74
2022/03/29 11:07:30;;;;;;;22.38;11.40;;;;;;;20.51;57.06;99688.25;5091086;28;20516;-74
2022/03/29 11:10:21;;;;;;;25.13;12.27;;;;;;;20.61;56.71;99679.13;5051743;28;20025;-74
2022/03/29 11:12:49;;;;;;;25.27;11.23;;;;;;;20.79;55.58;99685.03;5064850;28;20064;-75
2022/03/29 11:15:47;;;;;;;26.17;11.27;;;;;;;20.92;55.01;99679.94;5077133;28;20082;-74
2022/03/29 11:18:30;;;;;;;20.17;10.65;;;;;;;21.10;54.10;99674.53;5084835;28;20063;-74
2022/03/29 11:21:02;;;;;;;22.75;11.45;;;;;;;21.18;54.79;99677.03;5065535;28;20024;-74
2022/03/29 11:23:38;;;;;;;24.23;11.48;;;;;;;21.33;54.25;99680.03;5066875;28;20068;-74
2022/03/29 11:26:10;;;;;;;30.33;12.75;;;;;;;21.38;53.35;99677.69;5066159;28;20032;-74
2022/03/29 11:28:36;;;;;;;23.08;11.38;;;;;;;21.49;53.59;99668.53;5069844;28;20528;-74
2022/03/29 11:31:02;;;;;;;23.48;10.82;;;;;;;21.57;54.14;99671.03;5074720;28;20052;-74
2022/03/29 11:33:32;;;;;;;23.30;11.07;;;;;;;21.70;54.74;99665.88;5092820;28;20107;-74
2022/03/29 11:35:57;;;;;;;20.17;10.40;;;;;;;21.83;54.23;99657.94;5076636;28;20089;-74